Aviation Digital Data Service (ADDS)

Output produced by TAFs form (0119 UTC 12 February 2016)
found at http://www.aviationweather.gov/adds/tafs/
 
KBJC 120045Z 06008KT 60SM FEW070 BKN150 11/M04 A3022
KBJC 120058Z 1201/1224 06010KT P6SM FEW070 BKN140 
     FM120200 VRB05KT P6SM SCT080 BKN140 
     FM120400 26007KT P6SM SCT140 BKN220 
     FM121500 VRB05KT P6SM FEW080 BKN120 
     FM121800 10007KT P6SM FEW120 SCT220